Latest Weather Observations for Emerald

IDQ60801

Issued at 8:32 am EST Saturday 30 May 2015 (issued every 30 minutes, with the page automatically refreshed every 10 minutes)

About weather observations | Map of weather stations | Latest weather observations for QLD | Other Formats
Station Details ID: 035264 Name: EMERALD AIRPORT Lat: -23.57 Lon: 148.18 Height: 189.4 m
Data from the previous 72 hours. | See also: Recent months at Emerald
Date/Time
EST
Temp
°C
App
Temp
°C
Dew
Point
Rel
Hum
%
Delta-T
°C
Wind Press
QNH
hPa
Press
MSL
hPa
Rain
since 9 am
mm
Dir
 
Spd
km/h
Gust
km/h
Spd
kts
Gust
kts
30/08:27am 19.2 19.5 17.0 87 1.3 ESE 11 19 6 10 1023.3 - 0.0
30/08:23am 19.1 19.7 16.7 86 1.5 ESE 9 13 5 7 1023.2 - 0.0
30/08:08am 17.8 18.2 15.2 85 1.5 SE 7 9 4 5 1023.2 - 0.0
30/08:00am 17.1 17.3 14.7 86 1.4 SE 7 9 4 5 1023.2 - 0.0
30/07:30am 15.3 15.6 14.5 95 0.5 SSE 6 7 3 4 1023.2 - 0.0
30/07:19am 14.6 14.1 13.8 95 0.5 S 9 11 5 6 1023.1 - 0.0
30/07:00am 13.7 13.3 12.9 95 0.4 SSE 7 9 4 5 1023.0 - 0.0
30/06:46am 13.4 12.4 12.3 93 0.6 SSE 9 9 5 5 1022.9 - 0.0
30/06:30am 13.8 13.8 12.5 92 0.7 SSE 4 6 2 3 1022.7 - 0.0
30/06:00am 13.5 13.0 12.2 92 0.7 SE 6 7 3 4 1022.2 1021.7 0.0
30/05:30am 14.0 14.8 12.7 92 0.7 CALM 0 0 0 0 1022.0 - 0.0
30/05:00am 14.3 15.1 12.7 90 0.9 CALM 0 0 0 0 1021.9 - 0.0
30/04:30am 14.3 13.8 12.7 90 0.9 S 7 9 4 5 1021.7 - 0.0
30/04:00am 14.4 13.7 12.1 86 1.3 SE 7 7 4 4 1021.5 - 0.0
30/03:30am 15.1 14.7 13.1 88 1.1 ESE 7 9 4 5 1021.4 - 0.0
30/03:00am 14.8 14.3 12.5 86 1.3 SE 7 9 4 5 1021.5 1021.0 0.0
30/02:30am 15.1 15.3 11.9 81 1.7 E 2 7 1 4 1021.5 - 0.0
30/02:00am 16.0 16.8 12.6 80 1.9 CALM 0 0 0 0 1021.5 - 0.0
30/01:30am 16.1 16.2 12.7 80 1.9 ENE 4 7 2 4 1021.7 - 0.0
30/01:00am 16.8 16.6 12.9 78 2.2 NE 6 7 3 4 1021.8 - 0.0
30/12:30am 17.2 16.8 12.9 76 2.4 NE 7 9 4 5 1022.1 - 0.0
30/12:00am 17.2 16.7 12.5 74 2.6 E 7 9 4 5 1022.2 1021.7 0.0
 
Date/Time
EST
Temp
°C
App
Temp
°C
Dew
Point
Rel
Hum
%
Delta-T
°C
Wind Press
QNH
hPa
Press
MSL
hPa
Rain
since 9 am
mm
Dir
 
Spd
km/h
Gust
km/h
Spd
kts
Gust
kts
29/11:30pm 17.9 17.2 11.9 68 3.3 ENE 7 9 4 5 1022.3 - 0.0
29/11:00pm 19.1 18.4 13.1 68 3.4 NE 9 13 5 7 1022.5 - 0.0
29/10:30pm 18.8 17.6 12.8 68 3.4 ENE 11 15 6 8 1022.6 - 0.0
29/10:00pm 18.7 17.1 12.7 68 3.4 E 13 15 7 8 1022.7 - 0.0
29/09:30pm 18.1 16.2 11.7 66 3.5 ESE 13 13 7 7 1022.5 - 0.0
29/09:00pm 18.9 17.4 11.9 64 3.9 E 11 13 6 7 1022.3 1021.8 0.0
29/08:30pm 19.2 17.6 11.7 62 4.2 ESE 11 13 6 7 1022.2 - 0.0
29/08:00pm 19.6 18.3 11.4 59 4.5 E 9 9 5 5 1021.9 - 0.0
29/07:30pm 20.1 19.3 11.6 58 4.7 E 7 9 4 5 1021.6 - 0.0
29/07:00pm 22.1 21.0 12.1 53 5.7 ENE 9 11 5 6 1021.3 - 0.0
29/06:30pm 22.4 21.3 11.8 51 6.0 NE 9 11 5 6 1021.2 - 0.0
29/06:00pm 23.1 21.8 12.4 51 6.1 E 11 13 6 7 1020.9 1020.4 0.0
29/05:30pm 24.7 22.6 12.3 46 7.2 E 15 17 8 9 1020.4 - 0.0
29/05:00pm 26.3 23.7 12.0 41 8.3 E 17 19 9 10 1020.2 - 0.0
29/04:30pm 27.1 24.6 12.3 39 8.6 E 17 22 9 12 1020.2 - 0.0
29/04:00pm 27.3 24.7 12.1 39 8.9 E 17 24 9 13 1019.9 - 0.0
29/03:30pm 27.4 25.1 11.8 38 9.0 ENE 15 24 8 13 1019.8 - 0.0
29/03:00pm 27.4 25.6 12.2 39 8.8 E 13 22 7 12 1019.9 1019.3 0.0
29/02:30pm 27.2 24.7 12.4 40 8.7 E 17 24 9 13 1020.1 - 0.0
29/02:00pm 27.4 25.4 12.6 40 8.7 E 15 28 8 15 1020.3 - 0.0
29/01:30pm 27.1 25.5 12.7 41 8.5 ESE 13 22 7 12 1020.5 - 0.0
29/01:00pm 26.7 24.8 13.1 43 8.0 E 15 26 8 14 1020.9 - 0.0
29/12:30pm 25.4 24.5 13.6 48 7.0 SE 11 17 6 9 1021.6 - 0.0
29/12:00pm 26.5 24.8 14.6 48 7.2 ENE 17 28 9 15 1022.2 1021.7 0.0
29/11:30am 23.9 23.4 14.9 57 5.4 E 11 19 6 10 1022.9 - 0.0
29/11:00am 23.2 22.4 15.0 60 4.9 E 13 19 7 10 1023.6 - 0.0
29/10:30am 23.0 22.3 15.3 62 4.6 ENE 13 22 7 12 1024.0 - 0.0
29/10:00am 22.0 21.9 16.1 69 3.6 E 11 17 6 9 1024.4 - 0.0
29/09:53am 21.4 20.4 15.7 70 3.4 E 15 20 8 11 1024.6 - 0.0
29/09:30am 20.8 20.7 16.0 74 2.9 E 11 17 6 9 1024.7 - 0.0
29/09:00am 20.0 20.1 16.6 81 2.1 E 11 15 6 8 1024.7 1024.2 0.0
29/08:30am 18.8 18.8 16.2 85 1.6 E 11 15 6 8 1024.5 - 0.0
29/08:00am 18.1 18.2 16.4 90 1.0 ESE 11 15 6 8 1024.0 - 0.0
29/07:30am 16.2 16.6 15.4 95 0.5 SE 7 9 4 5 1023.7 - 0.0
29/07:00am 15.6 16.1 15.1 97 0.3 E 6 7 3 4 1023.4 - 0.0
29/06:30am 14.4 14.5 13.9 97 0.3 E 6 7 3 4 1023.1 - 0.0
29/06:12am 13.9 13.6 13.3 96 0.3 ESE 7 9 4 5 1023.1 - 0.0
29/06:00am 13.3 12.7 12.4 94 0.5 SSE 7 9 4 5 1023.0 1022.5 0.0
29/05:30am 13.3 12.6 12.0 92 0.7 SSE 7 9 4 5 1022.8 - 0.0
29/05:00am 13.3 13.6 11.0 86 1.2 CALM 0 0 0 0 1022.8 - 0.0
29/04:30am 14.0 14.6 11.9 87 1.1 CALM 0 0 0 0 1022.5 - 0.0
29/04:00am 13.9 13.4 11.9 88 1.1 E 6 7 3 4 1022.4 - 0.0
29/03:30am 14.2 13.7 12.1 87 1.1 E 6 7 3 4 1022.2 - 0.0
29/03:00am 14.1 13.3 11.8 86 1.2 E 7 9 4 5 1022.2 1021.7 0.0
29/02:30am 15.1 14.8 12.6 85 1.4 E 6 7 3 4 1022.3 - 0.0
29/02:00am 15.0 14.2 11.8 81 1.7 E 7 7 4 4 1022.5 - 0.0
29/01:30am 15.4 15.0 12.3 82 1.7 ENE 6 7 3 4 1022.6 - 0.0
29/01:00am 15.3 14.5 11.7 79 2.0 ENE 7 9 4 5 1022.6 - 0.0
29/12:30am 16.2 15.8 12.4 78 2.1 E 6 7 3 4 1022.7 - 0.0
29/12:00am 16.1 15.5 11.7 75 2.4 E 6 6 3 3 1022.6 1022.1 0.0
 
Date/Time
EST
Temp
°C
App
Temp
°C
Dew
Point
Rel
Hum
%
Delta-T
°C
Wind Press
QNH
hPa
Press
MSL
hPa
Rain
since 9 am
mm
Dir
 
Spd
km/h
Gust
km/h
Spd
kts
Gust
kts
28/11:30pm 16.4 15.8 11.8 74 2.5 E 6 7 3 4 1022.6 - 0.0
28/11:00pm 16.6 15.0 11.7 73 2.7 E 11 11 6 6 1022.4 - 0.0
28/10:30pm 16.9 15.3 11.4 70 3.0 E 11 11 6 6 1022.5 - 0.0
28/10:00pm 17.5 15.9 11.5 68 3.3 E 11 13 6 7 1022.6 - 0.0
28/09:30pm 17.7 16.0 11.3 66 3.5 E 11 13 6 7 1022.5 - 0.0
28/09:00pm 17.8 16.0 10.7 63 3.8 E 11 13 6 7 1022.2 1021.7 0.0
28/08:30pm 18.9 17.4 10.5 58 4.6 E 9 9 5 5 1022.2 - 0.0
28/08:00pm 19.7 18.9 10.9 57 4.8 E 6 7 3 4 1021.9 - 0.0
28/07:30pm 19.8 18.3 10.5 55 5.1 E 9 11 5 6 1021.6 - 0.0
28/07:00pm 20.7 19.4 11.1 54 5.3 E 9 13 5 7 1021.2 - 0.0
28/06:30pm 21.1 19.6 10.6 51 5.8 E 9 11 5 6 1020.8 - 0.0
28/06:00pm 22.7 21.2 10.5 46 6.7 ENE 9 13 5 7 1020.6 1020.1 0.0
28/05:30pm 24.0 21.3 10.3 42 7.6 ENE 15 17 8 9 1020.0 - 0.0
28/05:00pm 25.9 22.7 10.1 37 8.8 ENE 17 20 9 11 1019.8 - 0.0
28/04:30pm 26.7 23.9 10.0 35 9.4 E 15 26 8 14 1019.6 - 0.0
28/04:00pm 27.0 24.4 10.7 36 9.3 E 15 20 8 11 1019.6 - 0.0
28/03:30pm 27.1 23.5 10.7 35 9.3 E 20 28 11 15 1019.4 - 0.0
28/03:00pm 26.9 24.4 11.0 37 9.1 E 15 20 8 11 1019.7 1019.1 0.0
28/02:30pm 26.9 25.0 11.8 39 8.7 E 13 22 7 12 1019.8 - 0.0
28/02:00pm 26.0 23.9 12.5 43 7.9 ESE 15 24 8 13 1020.1 - 0.0
28/01:30pm 26.9 24.8 12.5 40 8.4 E 15 20 8 11 1020.4 - 0.0
28/01:00pm 25.0 23.8 12.9 47 7.1 SE 11 17 6 9 1020.9 - 0.0
28/12:30pm 25.2 24.6 13.4 48 7.0 S 9 19 5 10 1021.6 - 0.0
28/12:00pm 23.9 22.2 13.7 53 6.0 E 15 26 8 14 1022.2 1021.7 0.0
28/11:30am 24.5 23.0 14.3 53 6.1 E 15 20 8 11 1022.7 - 0.0
28/11:00am 23.8 21.4 13.9 54 5.8 E 19 28 10 15 1023.4 - 0.0
28/10:30am 22.9 21.8 14.2 58 5.1 E 13 24 7 13 1023.9 - 0.0
28/10:00am 22.1 20.2 14.2 61 4.7 E 17 22 9 12 1024.0 - 0.0
28/09:30am 21.2 20.2 14.6 66 3.9 E 13 17 7 9 1024.0 - 0.0
28/09:00am 20.3 19.4 13.7 66 3.8 ESE 11 17 6 9 1023.9 1023.4 0.0
28/08:30am 18.7 17.4 12.5 67 3.5 SSE 11 15 6 8 1023.5 - 0.0
28/08:00am 17.0 15.3 12.5 75 2.5 SE 13 17 7 9 1023.1 - 0.0
28/07:57am 17.1 15.5 12.8 76 2.4 SE 13 17 7 9 1023.1 - 0.0
28/07:42am 15.8 15.4 13.1 84 1.5 SSE 7 13 4 7 1023.1 - 0.0
28/07:30am 14.7 14.1 12.4 86 1.3 S 7 9 4 5 1022.9 - 0.0
28/07:18am 14.3 13.8 12.2 87 1.1 S 6 7 3 4 1022.7 - 0.0
28/07:00am 13.9 12.9 12.3 90 0.9 SSE 9 11 5 6 1022.6 - 0.0
28/06:31am 14.0 13.7 12.6 91 0.8 SSE 6 6 3 3 1022.4 - 0.0
28/06:30am 13.9 13.6 12.6 92 0.7 SSE 6 6 3 3 1022.4 - 0.0
28/06:00am 14.0 12.7 12.6 91 0.8 SSE 11 13 6 7 1021.8 1021.3 0.0
28/05:30am 14.1 13.4 12.1 88 1.1 SE 7 9 4 5 1021.6 - 0.0
28/05:00am 14.4 13.8 12.4 88 1.1 ESE 7 9 4 5 1021.5 - 0.0
28/04:30am 14.3 13.3 12.3 88 1.1 ESE 9 11 5 6 1021.4 - 0.0
28/04:00am 14.2 13.4 11.7 85 1.4 ESE 7 9 4 5 1021.2 - 0.0
28/03:30am 14.3 13.1 11.6 84 1.5 ESE 9 9 5 5 1021.4 - 0.0
28/03:00am 14.3 13.3 10.9 80 1.8 ESE 7 9 4 5 1021.3 1020.8 0.0
28/02:30am 14.5 13.0 10.7 78 2.0 SSE 9 9 5 5 1021.2 - 0.0
28/02:00am 14.9 15.2 10.9 77 2.1 CALM 0 0 0 0 1021.4 - 0.0
28/01:30am 15.1 15.3 10.7 75 2.3 CALM 0 0 0 0 1021.7 - 0.0
28/01:00am 16.0 15.1 11.2 73 2.6 E 7 9 4 5 1021.7 - 0.0
28/12:30am 15.8 14.7 10.8 72 2.7 E 7 9 4 5 1021.7 - 0.0
28/12:00am 15.7 14.0 9.8 68 3.1 E 9 11 5 6 1021.6 1021.1 0.0
 
Date/Time
EST
Temp
°C
App
Temp
°C
Dew
Point
Rel
Hum
%
Delta-T
°C
Wind Press
QNH
hPa
Press
MSL
hPa
Rain
since 9 am
mm
Dir
 
Spd
km/h
Gust
km/h
Spd
kts
Gust
kts
27/11:30pm 16.9 15.4 10.5 66 3.4 E 9 9 5 5 1021.7 - 0.0
27/11:00pm 17.9 16.5 11.0 64 3.8 E 9 11 5 6 1022.0 - 0.0
27/10:30pm 18.1 16.6 10.7 62 4.0 E 9 11 5 6 1021.8 - 0.0
27/10:00pm 18.8 16.6 10.9 60 4.3 ENE 13 17 7 9 1021.4 - 0.0
27/09:30pm 18.5 16.2 10.3 59 4.4 E 13 13 7 7 1021.2 - 0.0
27/09:00pm 19.6 17.6 10.3 55 5.0 ESE 11 13 6 7 1021.6 1021.1 0.0
27/08:30pm 19.1 17.0 9.6 54 5.1 SE 11 13 6 7 1021.4 - 0.0
27/08:00pm 20.1 18.5 10.2 53 5.4 E 9 11 5 6 1021.1 - 0.0
27/07:30pm 20.4 18.4 10.2 52 5.6 E 11 13 6 7 1020.8 - 0.0
27/07:00pm 21.0 19.2 9.6 48 6.2 SE 9 11 5 6 1020.5 - 0.0
27/06:30pm 22.1 20.4 9.9 46 6.7 SSE 9 11 5 6 1020.1 - 0.0
27/06:00pm 22.7 21.0 9.8 44 7.0 SSE 9 9 5 5 1019.9 1019.3 0.0
27/05:30pm 23.7 21.6 9.7 41 7.7 SE 11 13 6 7 1019.6 - 0.0
27/05:00pm 25.4 23.7 9.7 37 8.7 SE 9 11 5 6 1019.3 - 0.0
27/04:30pm 26.1 24.0 9.9 36 9.0 E 11 17 6 9 1019.4 - 0.0
27/04:00pm 26.6 25.4 10.3 36 9.2 E 7 13 4 7 1019.5 - 0.0
27/03:30pm 26.5 25.3 10.2 36 9.2 SE 7 17 4 9 1019.6 - 0.0
27/03:00pm 26.0 24.9 10.6 38 8.7 SE 7 13 4 7 1019.7 1019.1 0.0
27/02:30pm 26.9 24.5 11.4 38 8.9 SSE 15 30 8 16 1019.8 - 0.0
27/02:00pm 26.1 24.5 10.3 37 8.9 NE 9 13 5 7 1020.2 - 0.0
27/01:30pm 25.9 23.2 10.5 38 8.7 SE 15 20 8 11 1020.6 - 0.0
27/01:00pm 25.6 24.2 11.0 40 8.3 E 9 22 5 12 1021.0 - 0.0
27/12:30pm 24.9 22.8 11.1 42 7.8 ESE 13 17 7 9 1021.5 - 0.0
27/12:00pm 24.7 23.1 11.6 44 7.5 ENE 11 19 6 10 1022.0 1021.5 0.0
27/11:30am 23.6 21.6 11.6 47 6.8 E 13 20 7 11 1022.8 - 0.0
27/11:00am 23.6 21.6 11.6 47 6.8 ESE 13 28 7 15 1023.6 - 0.0
27/10:30am 22.6 20.7 11.7 50 6.2 ENE 13 19 7 10 1024.1 - 0.0
27/10:00am 21.9 20.0 11.9 53 5.7 E 13 20 7 11 1024.4 - 0.0
27/09:30am 21.6 20.6 12.2 55 5.3 ESE 9 19 5 10 1024.5 - 0.0
27/09:00am 20.0 18.2 11.0 56 4.9 SSE 11 17 6 9 1024.5 1024.0 0.0

Other Formats:

Comma delimited format used in spreadsheet applications
http://www.bom.gov.au/fwo/IDQ60801/IDQ60801.94363.axf

JavaScript Object Notation format (JSON) in row-major order
http://www.bom.gov.au/fwo/IDQ60801/IDQ60801.94363.json